createdAt,value
2022-09-12T00:01:06.991Z,19.58
2022-09-12T00:03:35.737Z,19.56
2022-09-12T00:06:09.445Z,19.53
2022-09-12T00:08:37.555Z,19.52
2022-09-12T00:11:07.908Z,19.55
2022-09-12T00:13:41.367Z,19.53
2022-09-12T00:16:17.340Z,19.51
2022-09-12T00:18:47.157Z,19.51
2022-09-12T00:21:16.552Z,19.53
2022-09-12T00:23:44.871Z,19.53
2022-09-12T00:26:13.546Z,19.51
2022-09-12T00:28:42.615Z,19.50
2022-09-12T00:31:14.284Z,19.48
2022-09-12T00:33:43.878Z,19.46
2022-09-12T00:36:15.396Z,19.46
2022-09-12T00:38:43.840Z,19.44
2022-09-12T00:41:16.454Z,19.45
2022-09-12T00:43:46.468Z,19.45
2022-09-12T00:46:26.151Z,19.42
2022-09-12T00:49:00.050Z,19.40
2022-09-12T00:51:30.542Z,19.38
2022-09-12T00:54:00.697Z,19.32
2022-09-12T00:56:29.265Z,19.29
2022-09-12T00:59:02.307Z,19.27
2022-09-12T01:01:32.794Z,19.26
2022-09-12T01:04:01.508Z,19.24
2022-09-12T01:06:34.161Z,19.23
2022-09-12T01:09:04.198Z,19.23
2022-09-12T01:11:32.703Z,19.21
2022-09-12T01:14:00.903Z,19.20
2022-09-12T01:16:29.640Z,19.21
2022-09-12T01:19:16.127Z,19.10
2022-09-12T01:21:57.704Z,19.06
2022-09-12T01:24:54.991Z,19.00
2022-09-12T01:28:03.038Z,18.98
2022-09-12T01:30:48.601Z,18.97
2022-09-12T01:33:36.149Z,18.95
2022-09-12T01:36:25.911Z,19.02
2022-09-12T01:39:00.549Z,19.03
2022-09-12T01:41:33.515Z,19.03
2022-09-12T01:44:06.893Z,19.05
2022-09-12T01:46:44.092Z,19.02
2022-09-12T01:49:18.957Z,18.98
2022-09-12T01:51:58.334Z,18.99
2022-09-12T01:54:31.777Z,18.96
2022-09-12T01:57:04.831Z,18.95
2022-09-12T01:59:38.250Z,18.93
2022-09-12T02:02:11.556Z,18.92
2022-09-12T02:04:46.893Z,18.91
2022-09-12T02:07:21.367Z,18.87
2022-09-12T02:09:55.805Z,18.86
2022-09-12T02:12:29.750Z,18.86
2022-09-12T02:15:03.390Z,18.84
2022-09-12T02:17:36.955Z,18.84
2022-09-12T02:20:17.743Z,18.85
2022-09-12T02:23:01.514Z,18.82
2022-09-12T02:25:31.689Z,18.82
2022-09-12T02:28:05.143Z,18.82
2022-09-12T02:30:40.920Z,18.83
2022-09-12T02:33:19.384Z,18.82
2022-09-12T02:35:51.079Z,18.78
2022-09-12T02:38:25.871Z,18.78
2022-09-12T02:40:54.129Z,18.78
2022-09-12T02:43:22.637Z,18.76
2022-09-12T02:45:50.857Z,18.78
2022-09-12T02:48:24.563Z,18.78
2022-09-12T02:50:52.688Z,18.77
2022-09-12T02:53:21.386Z,18.77
2022-09-12T02:55:49.795Z,18.73
2022-09-12T02:58:20.399Z,18.74
2022-09-12T03:00:53.212Z,18.72
2022-09-12T03:03:49.186Z,18.67
2022-09-12T03:06:22.610Z,18.68
2022-09-12T03:09:07.865Z,18.62
2022-09-12T03:11:49.770Z,18.61
2022-09-12T03:14:37.246Z,18.56
2022-09-12T03:17:11.910Z,18.58
2022-09-12T03:19:53.825Z,18.55
2022-09-12T03:22:26.241Z,18.54
2022-09-12T03:25:01.563Z,18.53
2022-09-12T03:27:34.058Z,18.52
2022-09-12T03:30:03.032Z,18.50
2022-09-12T03:32:45.855Z,18.44
2022-09-12T03:35:19.840Z,18.46
2022-09-12T03:37:51.765Z,18.46
2022-09-12T03:40:20.240Z,18.42
2022-09-12T03:42:48.365Z,18.42
2022-09-12T03:45:16.873Z,18.41
2022-09-12T03:47:44.968Z,18.41
2022-09-12T03:50:12.962Z,18.40
2022-09-12T03:52:42.359Z,18.28
2022-09-12T03:55:10.998Z,18.35
2022-09-12T03:57:39.537Z,18.37
2022-09-12T04:00:09.198Z,18.38
2022-09-12T04:02:44.568Z,18.38
2022-09-12T04:05:12.600Z,18.37
2022-09-12T04:07:41.980Z,18.38
2022-09-12T04:10:10.530Z,18.37
2022-09-12T04:12:39.546Z,18.38
2022-09-12T04:15:08.830Z,18.39
2022-09-12T04:17:36.842Z,18.34
2022-09-12T04:20:05.386Z,18.29
2022-09-12T04:22:33.775Z,18.28
2022-09-12T04:25:03.249Z,18.26
2022-09-12T04:27:31.477Z,18.23
2022-09-12T04:30:02.195Z,18.23
2022-09-12T04:32:31.328Z,18.23
2022-09-12T04:34:59.317Z,18.22
2022-09-12T04:37:27.383Z,18.22
2022-09-12T04:39:57.859Z,18.22
2022-09-12T04:42:27.391Z,18.22
2022-09-12T04:44:55.414Z,18.21
2022-09-12T04:47:23.462Z,18.23
2022-09-12T04:49:52.468Z,18.23
2022-09-12T04:52:20.490Z,18.21
2022-09-12T04:54:48.625Z,18.21
2022-09-12T04:57:16.645Z,18.23
2022-09-12T04:59:46.020Z,18.26
2022-09-12T05:02:14.159Z,18.27
2022-09-12T05:04:42.155Z,18.29
2022-09-12T05:07:10.345Z,18.32
2022-09-12T05:09:38.365Z,18.33
2022-09-12T05:12:07.348Z,18.34
2022-09-12T05:14:35.661Z,18.32
2022-09-12T05:17:06.330Z,18.34
2022-09-12T05:19:34.724Z,18.35
2022-09-12T05:22:02.937Z,18.35
2022-09-12T05:24:30.923Z,18.38
2022-09-12T05:26:58.994Z,18.39
2022-09-12T05:29:27.147Z,18.40
2022-09-12T05:31:55.151Z,18.42
2022-09-12T05:34:24.699Z,18.43
2022-09-12T05:36:52.706Z,18.47
2022-09-12T05:39:20.746Z,18.52
2022-09-12T05:41:48.852Z,18.61
2022-09-12T05:44:17.246Z,18.65
2022-09-12T05:46:48.610Z,18.72
2022-09-12T05:49:16.817Z,18.79
2022-09-12T05:51:46.811Z,18.91
2022-09-12T05:54:17.851Z,18.99
2022-09-12T05:56:46.586Z,19.08
2022-09-12T05:59:16.947Z,19.21
2022-09-12T06:01:45.707Z,19.35
2022-09-12T06:04:14.017Z,19.47
2022-09-12T06:06:45.269Z,19.63
2022-09-12T06:09:16.061Z,19.77
2022-09-12T06:11:45.697Z,20.03
2022-09-12T06:14:15.537Z,20.22
2022-09-12T06:16:43.808Z,20.40
2022-09-12T06:19:16.165Z,20.60
2022-09-12T06:21:44.698Z,20.76
2022-09-12T06:24:14.282Z,20.86
2022-09-12T06:26:43.726Z,20.94
2022-09-12T06:29:13.388Z,21.03
2022-09-12T06:31:42.897Z,21.13
2022-09-12T06:34:14.062Z,21.29
2022-09-12T06:36:44.927Z,21.42
2022-09-12T06:39:16.230Z,21.57
2022-09-12T06:41:44.775Z,21.70
2022-09-12T06:44:16.050Z,21.83
2022-09-12T06:46:44.704Z,21.83
2022-09-12T06:49:12.971Z,21.87
2022-09-12T06:51:42.175Z,21.87
2022-09-12T06:54:11.041Z,21.82
2022-09-12T06:56:40.843Z,21.84
2022-09-12T06:59:08.927Z,21.89
2022-09-12T07:01:37.213Z,21.99
2022-09-12T07:04:06.148Z,22.05
2022-09-12T07:06:39.127Z,21.98
2022-09-12T07:09:08.976Z,22.07
2022-09-12T07:11:39.111Z,22.18
2022-09-12T07:14:11.057Z,22.13
2022-09-12T07:16:39.096Z,22.13
2022-09-12T07:19:08.414Z,22.25
2022-09-12T07:21:40.000Z,22.31
2022-09-12T07:24:10.086Z,22.43
2022-09-12T07:26:39.908Z,22.54
2022-09-12T07:32:02.519Z,22.72
2022-09-12T07:34:30.534Z,22.73
2022-09-12T07:36:58.683Z,22.81
2022-09-12T07:39:27.105Z,22.88
2022-09-12T07:41:55.087Z,22.96
2022-09-12T07:44:24.482Z,23.03
2022-09-12T07:46:52.472Z,23.09
2022-09-12T07:49:20.472Z,23.24
2022-09-12T07:51:48.449Z,23.32
2022-09-12T07:54:16.829Z,23.42
2022-09-12T07:56:45.886Z,23.43
2022-09-12T07:59:21.534Z,23.49
2022-09-12T08:01:59.531Z,23.50
2022-09-12T08:04:27.586Z,23.60
2022-09-12T08:06:55.682Z,23.65
2022-09-12T08:09:23.673Z,23.69
2022-09-12T08:11:51.859Z,23.83
2022-09-12T08:14:19.830Z,23.90
2022-09-12T08:16:48.178Z,24.01
2022-09-12T08:19:17.583Z,24.13
2022-09-12T08:21:45.611Z,24.20
2022-09-12T08:24:13.920Z,24.30
2022-09-12T08:26:43.014Z,24.42
2022-09-12T08:29:11.126Z,24.51
2022-09-12T08:31:39.154Z,24.55
2022-09-12T08:34:08.141Z,24.65
2022-09-12T08:36:37.651Z,24.71
2022-09-12T08:39:08.308Z,24.77
2022-09-12T08:41:39.782Z,24.86
2022-09-12T08:44:24.020Z,24.86
2022-09-12T08:47:04.798Z,24.93
2022-09-12T08:49:37.097Z,25.01
2022-09-12T08:52:12.082Z,25.07
2022-09-12T08:54:40.622Z,25.10
2022-09-12T08:57:12.012Z,25.12
2022-09-12T08:59:42.972Z,25.13
2022-09-12T09:02:34.645Z,25.07
2022-09-12T09:05:08.812Z,25.04
2022-09-12T09:08:01.995Z,24.94
2022-09-12T09:10:36.057Z,25.02
2022-09-12T09:13:10.641Z,25.24
2022-09-12T09:15:52.555Z,25.52
2022-09-12T09:18:24.901Z,25.99
2022-09-12T09:20:57.292Z,26.46
2022-09-12T09:23:31.117Z,26.49
2022-09-12T09:26:02.372Z,26.41
2022-09-12T09:28:38.161Z,26.32
2022-09-12T09:31:07.006Z,26.32
2022-09-12T09:33:36.242Z,26.38
2022-09-12T09:36:18.179Z,26.47
2022-09-12T09:38:50.789Z,26.54
2022-09-12T09:41:40.518Z,26.71
2022-09-12T09:44:08.972Z,26.89
2022-09-12T09:46:37.151Z,27.01
2022-09-12T09:49:07.803Z,27.23
2022-09-12T09:51:37.993Z,27.24
2022-09-12T09:54:18.549Z,27.25
2022-09-12T09:56:47.222Z,27.31
2022-09-12T09:59:18.637Z,27.42
2022-09-12T10:01:49.317Z,27.54
2022-09-12T10:04:25.507Z,27.56
2022-09-12T10:06:59.472Z,27.52
2022-09-12T10:09:33.024Z,27.53
2022-09-12T10:12:02.991Z,27.55
2022-09-12T10:14:37.963Z,27.58
2022-09-12T10:17:33.951Z,27.64
2022-09-12T10:22:51.633Z,27.66
2022-09-12T10:25:21.645Z,27.70
2022-09-12T10:27:55.468Z,27.91
2022-09-12T10:30:25.909Z,28.05
2022-09-12T10:32:54.378Z,28.19
2022-09-12T10:35:24.462Z,28.19
2022-09-12T10:37:56.493Z,28.18
2022-09-12T10:40:28.282Z,28.19
2022-09-12T10:42:58.178Z,28.18
2022-09-12T10:45:30.250Z,28.29
2022-09-12T10:48:03.053Z,28.53
2022-09-12T10:50:37.110Z,28.83
2022-09-12T10:53:19.266Z,29.65
2022-09-12T10:56:05.429Z,30.15
2022-09-12T10:59:03.555Z,30.54
2022-09-12T11:01:41.384Z,30.92
2022-09-12T11:04:30.575Z,31.55
2022-09-12T11:07:23.706Z,32.13
2022-09-12T11:09:58.739Z,32.24
2022-09-12T11:12:38.234Z,32.46
2022-09-12T11:15:22.494Z,32.71
2022-09-12T11:17:57.847Z,32.96
2022-09-12T11:20:54.983Z,33.45
2022-09-12T11:23:59.360Z,33.91
2022-09-12T11:26:40.684Z,34.14
2022-09-12T11:29:19.180Z,34.45
2022-09-12T11:32:12.530Z,34.61
2022-09-12T11:34:56.091Z,34.59
2022-09-12T11:37:47.084Z,34.62
2022-09-12T11:40:27.861Z,34.62
2022-09-12T11:43:02.734Z,34.63
2022-09-12T11:45:37.781Z,34.55
2022-09-12T11:48:13.082Z,34.55
2022-09-12T11:50:41.509Z,34.90
2022-09-12T11:53:17.122Z,35.11
2022-09-12T11:55:53.720Z,35.43
2022-09-12T11:58:25.513Z,35.39
2022-09-12T12:00:58.626Z,35.28
2022-09-12T12:03:33.271Z,35.35
2022-09-12T12:06:05.943Z,35.26
2022-09-12T12:08:39.750Z,34.90
2022-09-12T12:11:09.176Z,34.37
2022-09-12T12:13:41.046Z,34.18
2022-09-12T12:16:19.898Z,34.24
2022-09-12T12:18:55.892Z,34.30
2022-09-12T12:21:39.427Z,34.49
2022-09-12T12:24:16.717Z,34.68
2022-09-12T12:26:57.340Z,34.67
2022-09-12T12:29:44.067Z,34.53
2022-09-12T12:32:27.343Z,34.47
2022-09-12T12:35:32.693Z,34.62
2022-09-12T12:38:00.891Z,34.68
2022-09-12T12:40:31.119Z,34.67
2022-09-12T12:43:03.201Z,34.38
2022-09-12T12:46:06.983Z,34.25
2022-09-12T12:48:59.270Z,34.10
2022-09-12T12:51:44.107Z,33.94
2022-09-12T12:54:34.449Z,33.75
2022-09-12T12:57:18.446Z,33.60
2022-09-12T12:59:50.087Z,33.32
2022-09-12T13:02:23.902Z,33.09
2022-09-12T13:04:54.573Z,32.92
2022-09-12T13:07:28.841Z,32.83
2022-09-12T13:09:58.166Z,32.63
2022-09-12T13:12:29.653Z,32.29
2022-09-12T13:14:59.412Z,32.27
2022-09-12T13:17:31.986Z,32.42
2022-09-12T13:20:28.384Z,32.41
2022-09-12T13:23:22.197Z,32.41
2022-09-12T13:25:54.621Z,32.15
2022-09-12T13:28:23.101Z,32.04
2022-09-12T13:31:00.405Z,32.02
2022-09-12T13:33:36.897Z,32.19
2022-09-12T13:36:38.236Z,32.37
2022-09-12T13:39:16.001Z,32.24
2022-09-12T13:42:32.211Z,32.05
2022-09-12T13:45:04.356Z,31.88
2022-09-12T13:47:35.922Z,31.90
2022-09-12T13:50:05.588Z,31.83
2022-09-12T13:52:36.929Z,31.64
2022-09-12T13:55:09.782Z,31.56
2022-09-12T13:57:41.382Z,31.42
2022-09-12T14:00:20.094Z,31.48
2022-09-12T14:02:49.316Z,31.46
2022-09-12T14:05:22.216Z,31.51
2022-09-12T14:07:58.457Z,31.76
2022-09-12T14:10:33.189Z,31.87
2022-09-12T14:13:05.590Z,31.97
2022-09-12T14:15:38.104Z,31.85
2022-09-12T14:18:08.793Z,31.79
2022-09-12T14:20:39.562Z,31.80
2022-09-12T14:23:19.926Z,31.92
2022-09-12T14:25:49.410Z,31.89
2022-09-12T14:28:23.548Z,31.99
2022-09-12T14:31:01.649Z,31.82
2022-09-12T14:33:33.114Z,31.57
2022-09-12T14:36:13.311Z,31.34
2022-09-12T14:38:46.011Z,31.37
2022-09-12T14:41:21.943Z,31.30
2022-09-12T14:43:54.687Z,31.09
2022-09-12T14:46:28.504Z,31.15
2022-09-12T14:48:59.824Z,31.24
2022-09-12T14:51:32.365Z,31.12
2022-09-12T14:54:02.772Z,31.15
2022-09-12T14:56:42.368Z,31.37
2022-09-12T14:59:28.639Z,31.49
2022-09-12T15:02:26.741Z,31.40
2022-09-12T15:04:56.398Z,31.38
2022-09-12T15:07:33.033Z,31.16
2022-09-12T15:10:06.432Z,31.11
2022-09-12T15:12:34.952Z,31.08
2022-09-12T15:15:14.724Z,30.87
2022-09-12T15:17:43.478Z,30.68
2022-09-12T15:20:12.116Z,30.63
2022-09-12T15:22:41.426Z,30.63
2022-09-12T15:25:13.649Z,30.56
2022-09-12T15:27:42.389Z,30.51
2022-09-12T15:30:13.210Z,30.35
2022-09-12T15:32:43.376Z,30.27
2022-09-12T15:35:15.701Z,30.15
2022-09-12T15:37:44.002Z,30.05
2022-09-12T15:40:14.368Z,30.04
2022-09-12T15:42:43.550Z,30.12
2022-09-12T15:45:20.097Z,30.17
2022-09-12T15:47:48.465Z,30.04
2022-09-12T15:50:17.001Z,30.23
2022-09-12T15:52:45.457Z,30.27
2022-09-12T15:55:19.262Z,30.40
2022-09-12T15:57:47.973Z,30.45
2022-09-12T16:00:17.860Z,30.52
2022-09-12T16:02:47.365Z,30.48
2022-09-12T16:05:18.120Z,30.51
2022-09-12T16:07:46.645Z,30.49
2022-09-12T16:10:21.368Z,30.50
2022-09-12T16:12:49.888Z,30.37
2022-09-12T16:15:20.195Z,30.18
2022-09-12T16:17:48.516Z,30.09
2022-09-12T16:20:17.147Z,30.00
2022-09-12T16:22:45.558Z,29.89
2022-09-12T16:25:13.944Z,29.85
2022-09-12T16:27:43.923Z,29.77
2022-09-12T16:30:13.175Z,29.76
2022-09-12T16:32:41.602Z,29.73
2022-09-12T16:35:10.834Z,29.67
2022-09-12T16:37:39.102Z,29.59
2022-09-12T16:40:08.478Z,29.62
2022-09-12T16:42:40.722Z,29.61
2022-09-12T16:45:13.698Z,29.62
2022-09-12T16:47:42.013Z,29.60
2022-09-12T16:50:10.658Z,29.56
2022-09-12T16:52:38.938Z,29.53
2022-09-12T16:55:08.166Z,29.49
2022-09-12T16:57:36.473Z,29.41
2022-09-12T17:00:06.854Z,29.33
2022-09-12T17:02:36.732Z,29.12
2022-09-12T17:05:05.398Z,28.94
2022-09-12T17:07:34.300Z,28.87
2022-09-12T17:10:02.758Z,28.80
2022-09-12T17:12:31.070Z,28.73
2022-09-12T17:14:59.540Z,28.69
2022-09-12T17:17:28.016Z,28.64
2022-09-12T17:19:57.674Z,28.61
2022-09-12T17:22:26.065Z,28.49
2022-09-12T17:24:54.370Z,28.41
2022-09-12T17:27:22.619Z,28.31
2022-09-12T17:29:51.329Z,28.26
2022-09-12T17:32:19.649Z,28.12
2022-09-12T17:34:47.930Z,27.99
2022-09-12T17:37:17.831Z,27.84
2022-09-12T17:39:47.329Z,27.71
2022-09-12T17:42:15.633Z,27.57
2022-09-12T17:44:43.860Z,27.44
2022-09-12T17:47:12.097Z,27.35
2022-09-12T17:49:40.379Z,27.28
2022-09-12T17:52:08.646Z,27.19
2022-09-12T17:54:38.547Z,27.13
2022-09-12T17:57:07.171Z,27.08
2022-09-12T17:59:35.468Z,27.00
2022-09-12T18:02:16.241Z,26.91
2022-09-12T18:04:46.977Z,26.76
2022-09-12T18:07:16.010Z,26.63
2022-09-12T18:09:47.876Z,26.53
2022-09-12T18:12:16.423Z,26.40
2022-09-12T18:14:44.703Z,26.30
2022-09-12T18:17:13.005Z,26.20
2022-09-12T18:19:41.292Z,26.18
2022-09-12T18:22:09.715Z,26.10
2022-09-12T18:24:38.113Z,26.07
2022-09-12T18:27:07.817Z,26.04
2022-09-12T18:29:36.069Z,25.95
2022-09-12T18:32:04.355Z,25.89
2022-09-12T18:34:32.583Z,25.80
2022-09-12T18:37:02.040Z,25.73
2022-09-12T18:39:30.323Z,25.64
2022-09-12T18:41:58.577Z,25.56
2022-09-12T18:44:28.309Z,25.51
2022-09-12T18:46:56.609Z,25.44
2022-09-12T18:49:24.936Z,25.37
2022-09-12T18:51:53.186Z,25.32
2022-09-12T18:54:21.641Z,25.24
2022-09-12T18:56:49.980Z,25.17
2022-09-12T18:59:18.286Z,25.13
2022-09-12T19:01:48.093Z,25.09
2022-09-12T19:04:16.668Z,25.06
2022-09-12T19:06:46.734Z,25.03
2022-09-12T19:09:16.473Z,25.05
2022-09-12T19:11:49.584Z,25.08
2022-09-12T19:14:19.629Z,25.14
2022-09-12T19:16:50.803Z,25.17
2022-09-12T19:19:19.283Z,25.17
2022-09-12T19:21:47.608Z,25.16
2022-09-12T19:24:17.100Z,25.16
2022-09-12T19:26:45.753Z,25.14
2022-09-12T19:29:14.773Z,25.15
2022-09-12T19:31:43.174Z,25.10
2022-09-12T19:34:13.752Z,25.04
2022-09-12T19:36:46.782Z,24.98
2022-09-12T19:39:16.925Z,24.94
2022-09-12T19:41:45.607Z,24.93
2022-09-12T19:44:14.378Z,24.93
2022-09-12T19:46:42.743Z,24.97
2022-09-12T19:49:13.605Z,25.00
2022-09-12T19:51:42.458Z,25.00
2022-09-12T19:54:10.834Z,25.02
2022-09-12T19:56:39.398Z,25.03
2022-09-12T19:59:08.613Z,25.04
2022-09-12T20:01:37.682Z,25.04
2022-09-12T20:04:06.994Z,25.04
2022-09-12T20:06:36.891Z,25.08
2022-09-12T20:09:05.869Z,25.08
2022-09-12T20:11:34.109Z,25.07
2022-09-12T20:14:02.654Z,25.10
2022-09-12T20:16:31.181Z,25.10
2022-09-12T20:19:01.033Z,25.14
2022-09-12T20:21:33.121Z,25.17
2022-09-12T20:24:04.827Z,25.19
2022-09-12T20:26:33.600Z,25.19
2022-09-12T20:29:02.072Z,25.20
2022-09-12T20:31:31.223Z,25.21
2022-09-12T20:34:00.087Z,25.21
2022-09-12T20:36:28.631Z,25.22
2022-09-12T20:38:59.932Z,25.24
2022-09-12T20:41:32.538Z,25.24
2022-09-12T20:44:01.457Z,25.27
2022-09-12T20:46:30.370Z,25.29
2022-09-12T20:48:59.547Z,25.27
2022-09-12T20:51:29.808Z,25.25
2022-09-12T20:53:59.247Z,25.24
2022-09-12T20:56:29.521Z,25.25
2022-09-12T20:58:58.291Z,25.27
2022-09-12T21:01:27.863Z,25.30
2022-09-12T21:03:56.344Z,25.31
2022-09-12T21:06:25.177Z,25.27
2022-09-12T21:08:53.899Z,25.18
2022-09-12T21:11:22.197Z,25.10
2022-09-12T21:13:53.019Z,25.04
2022-09-12T21:16:22.943Z,25.04
2022-09-12T21:18:55.195Z,25.00
2022-09-12T21:21:23.894Z,25.00
2022-09-12T21:23:54.165Z,24.92
2022-09-12T21:26:22.528Z,24.84
2022-09-12T21:28:52.192Z,24.74
2022-09-12T21:31:20.793Z,24.66
2022-09-12T21:33:49.596Z,24.57
2022-09-12T21:36:18.276Z,24.51
2022-09-12T21:38:46.777Z,24.48
2022-09-12T21:41:16.886Z,24.43
2022-09-12T21:43:45.864Z,24.43
2022-09-12T21:46:15.626Z,24.41
2022-09-12T21:48:44.464Z,24.36
2022-09-12T21:51:12.663Z,24.34
2022-09-12T21:53:40.936Z,24.35
2022-09-12T21:56:10.179Z,24.40
2022-09-12T21:58:39.348Z,24.41
2022-09-12T22:01:11.912Z,24.43
2022-09-12T22:03:43.144Z,24.42
2022-09-12T22:06:11.478Z,24.39
2022-09-12T22:08:40.429Z,24.41
2022-09-12T22:11:10.394Z,24.40
2022-09-12T22:13:39.501Z,24.36
2022-09-12T22:16:08.346Z,24.32
2022-09-12T22:18:38.157Z,24.31
2022-09-12T22:21:09.553Z,24.30
2022-09-12T22:23:55.554Z,24.29
2022-09-12T22:26:24.138Z,24.24
2022-09-12T22:28:53.311Z,24.21
2022-09-12T22:31:22.395Z,24.18
2022-09-12T22:33:51.524Z,24.17
2022-09-12T22:36:21.218Z,24.18
2022-09-12T22:38:49.593Z,24.15
2022-09-12T22:41:18.102Z,24.06
2022-09-12T22:43:46.438Z,24.01
2022-09-12T22:46:14.965Z,23.95
2022-09-12T22:48:43.888Z,23.90
2022-09-12T22:51:12.477Z,23.83
2022-09-12T22:53:42.277Z,23.79
2022-09-12T22:56:10.876Z,23.77
2022-09-12T22:58:40.538Z,23.76
2022-09-12T23:01:10.104Z,23.70
2022-09-12T23:03:38.861Z,23.64
2022-09-12T23:06:08.718Z,23.55
2022-09-12T23:08:38.124Z,23.53
2022-09-12T23:11:10.326Z,23.44
2022-09-12T23:13:39.340Z,23.39
2022-09-12T23:16:09.278Z,23.35
2022-09-12T23:18:37.970Z,23.32
2022-09-12T23:21:08.151Z,23.32
2022-09-12T23:23:36.907Z,23.35
2022-09-12T23:26:12.517Z,23.37
2022-09-12T23:28:43.411Z,23.36
2022-09-12T23:31:11.774Z,23.35
2022-09-12T23:33:40.423Z,23.35
2022-09-12T23:36:12.756Z,23.31
2022-09-12T23:38:42.415Z,23.29
2022-09-12T23:41:13.465Z,23.29
2022-09-12T23:43:43.060Z,23.30
2022-09-12T23:46:11.375Z,23.30
2022-09-12T23:48:40.146Z,23.28
2022-09-12T23:51:08.635Z,23.27
2022-09-12T23:53:37.100Z,23.25
2022-09-12T23:56:06.141Z,23.26
2022-09-12T23:58:36.069Z,23.20
